Time,TemperatureF,DewpointF,PressureIn,WindDirection,WindDirectionDegrees,WindSpeedMPH,WindSpeedGustMPH,Humidity,HourlyPrecipIn,Conditions,Clouds,dailyrainin,SoftwareType,DateUTC
2013-06-19 00:04:00,54.7,48.0,30.04,SSW,208,0.0,4.0,78,0.00,,---,0.00,VWS V14.01,2013-06-19 07:04:00,
2013-06-19 00:09:00,54.6,47.9,30.01,SSW,208,2.0,5.0,78,0.00,,---,0.00,VWS V14.01,2013-06-19 07:09:00,
2013-06-19 00:14:00,54.5,47.8,30.03,SSW,208,3.0,5.0,78,0.00,,---,0.00,VWS V14.01,2013-06-19 07:14:00,
2013-06-19 00:19:00,54.5,48.1,30.03,SSW,209,0.0,5.0,79,0.00,,---,0.00,VWS V14.01,2013-06-19 07:19:00,
2013-06-19 00:24:00,54.3,47.6,30.03,SW,218,2.0,5.0,78,0.00,,---,0.00,VWS V14.01,2013-06-19 07:24:00,
2013-06-19 00:29:00,54.3,47.9,29.99,SW,220,3.0,6.0,79,0.00,,---,0.00,VWS V14.01,2013-06-19 07:29:00,
2013-06-19 00:34:00,54.3,47.9,30.00,SW,220,0.0,4.0,79,0.00,,---,0.00,VWS V14.01,2013-06-19 07:34:00,
2013-06-19 00:39:00,54.3,47.9,29.99,SW,220,2.0,4.0,79,0.00,,---,0.00,VWS V14.01,2013-06-19 07:39:00,
2013-06-19 00:44:00,54.2,48.2,30.00,SW,221,4.0,5.0,80,0.00,,---,0.00,VWS V14.01,2013-06-19 07:44:00,
2013-06-19 00:50:00,54.1,48.1,30.00,WSW,250,3.0,7.0,80,0.00,,---,0.00,VWS V14.01,2013-06-19 07:50:00,
2013-06-19 00:55:00,53.9,48.2,30.03,West,265,3.0,7.0,81,0.00,,---,0.00,VWS V14.01,2013-06-19 07:55:00,
2013-06-19 01:00:00,53.9,47.9,30.00,WSW,250,1.0,7.0,80,0.00,,---,0.00,VWS V14.01,2013-06-19 08:00:00,
2013-06-19 01:05:00,53.8,47.5,29.98,WSW,252,2.0,9.0,79,0.00,,---,0.00,VWS V14.01,2013-06-19 08:05:00,
2013-06-19 01:10:00,53.9,47.9,29.99,WSW,246,5.0,9.0,80,0.00,,---,0.00,VWS V14.01,2013-06-19 08:10:00,
2013-06-19 01:15:00,53.8,47.5,30.00,WSW,246,2.0,9.0,79,0.00,,---,0.00,VWS V14.01,2013-06-19 08:15:00,
2013-06-19 01:20:00,53.8,47.8,30.05,WSW,246,2.0,9.0,80,0.00,,---,0.00,VWS V14.01,2013-06-19 08:20:00,
2013-06-19 01:25:00,53.6,47.6,30.01,WSW,246,1.0,9.0,80,0.00,,---,0.00,VWS V14.01,2013-06-19 08:25:00,
2013-06-19 01:30:00,53.6,47.6,30.01,WSW,246,2.0,4.0,80,0.00,,---,0.00,VWS V14.01,2013-06-19 08:30:00,
2013-06-19 01:35:00,53.6,47.6,29.99,WSW,246,3.0,4.0,80,0.00,,---,0.00,VWS V14.01,2013-06-19 08:35:00,
2013-06-19 01:40:00,53.6,47.6,30.02,WSW,247,1.0,5.0,80,0.00,,---,0.00,VWS V14.01,2013-06-19 08:40:00,
2013-06-19 01:45:00,53.6,47.6,30.01,WSW,247,1.0,5.0,80,0.00,,---,0.00,VWS V14.01,2013-06-19 08:45:00,
2013-06-19 01:50:00,53.6,47.3,29.99,NW,319,0.0,5.0,79,0.00,,---,0.00,VWS V14.01,2013-06-19 08:50:00,
2013-06-19 01:55:00,53.6,47.3,30.00,WNW,284,5.0,5.0,79,0.00,,---,0.00,VWS V14.01,2013-06-19 08:55:00,
2013-06-19 02:00:00,53.6,47.6,29.99,WSW,257,1.0,1.0,80,0.00,,---,0.00,VWS V14.01,2013-06-19 09:00:00,
2013-06-19 02:05:00,53.5,47.5,30.02,WSW,257,0.0,3.0,80,0.00,,---,0.00,VWS V14.01,2013-06-19 09:05:00,
2013-06-19 02:10:00,53.4,47.4,30.00,WSW,257,0.0,3.0,80,0.00,,---,0.00,VWS V14.01,2013-06-19 09:10:00,
2013-06-19 02:15:00,53.4,47.4,30.01,WSW,257,0.0,3.0,80,0.00,,---,0.00,VWS V14.01,2013-06-19 09:15:00,
2013-06-19 02:20:00,53.3,47.3,30.00,WSW,257,0.0,3.0,80,0.00,,---,0.00,VWS V14.01,2013-06-19 09:20:00,
2013-06-19 02:25:00,53.3,47.3,30.00,WSW,257,0.0,3.0,80,0.00,,---,0.00,VWS V14.01,2013-06-19 09:25:00,
2013-06-19 02:30:00,53.3,47.0,29.99,WSW,257,0.0,1.0,79,0.00,,---,0.00,VWS V14.01,2013-06-19 09:30:00,
2013-06-19 02:35:00,53.1,46.8,30.00,WSW,257,0.0,1.0,79,0.00,,---,0.00,VWS V14.01,2013-06-19 09:35:00,
2013-06-19 02:40:00,53.1,46.8,29.99,WSW,257,2.0,3.0,79,0.00,,---,0.00,VWS V14.01,2013-06-19 09:40:00,
2013-06-19 02:46:00,53.2,46.9,30.02,WSW,257,0.0,3.0,79,0.00,,---,0.00,VWS V14.01,2013-06-19 09:46:00,
2013-06-19 02:51:00,53.0,46.7,30.00,WSW,257,0.0,3.0,79,0.00,,---,0.00,VWS V14.01,2013-06-19 09:51:00,
2013-06-19 02:56:00,52.9,46.6,29.99,WSW,257,0.0,3.0,79,0.00,,---,0.00,VWS V14.01,2013-06-19 09:56:00,
2013-06-19 03:01:00,52.7,46.4,30.02,WSW,257,0.0,0.0,79,0.00,,---,0.00,VWS V14.01,2013-06-19 10:01:00,
2013-06-19 03:06:00,52.6,46.3,30.01,WSW,257,0.0,0.0,79,0.00,,---,0.00,VWS V14.01,2013-06-19 10:06:00,
2013-06-19 03:11:00,52.5,46.5,30.02,WSW,257,0.0,0.0,80,0.00,,---,0.00,VWS V14.01,2013-06-19 10:11:00,
2013-06-19 03:16:00,52.3,46.0,30.02,WSW,257,0.0,0.0,79,0.00,,---,0.00,VWS V14.01,2013-06-19 10:16:00,
2013-06-19 03:21:00,52.3,46.3,30.00,WSW,257,0.0,1.0,80,0.00,,---,0.00,VWS V14.01,2013-06-19 10:21:00,
2013-06-19 03:26:00,52.1,46.1,30.02,WSW,257,0.0,1.0,80,0.00,,---,0.00,VWS V14.01,2013-06-19 10:26:00,
2013-06-19 03:31:00,52.0,45.7,30.01,WSW,257,0.0,0.0,79,0.00,,---,0.00,VWS V14.01,2013-06-19 10:31:00,
2013-06-19 03:36:00,51.8,45.8,30.02,WSW,257,0.0,2.0,80,0.00,,---,0.00,VWS V14.01,2013-06-19 10:36:00,
2013-06-19 03:41:00,51.7,45.7,30.01,WSW,257,0.0,2.0,80,0.00,,---,0.00,VWS V14.01,2013-06-19 10:41:00,
2013-06-19 03:46:00,51.8,45.8,30.00,WSW,257,0.0,2.0,80,0.00,,---,0.00,VWS V14.01,2013-06-19 10:46:00,
2013-06-19 03:51:00,51.5,45.5,30.01,WSW,257,0.0,2.0,80,0.00,,---,0.00,VWS V14.01,2013-06-19 10:51:00,
2013-06-19 03:56:00,51.5,45.5,30.00,WSW,257,0.0,2.0,80,0.00,,---,0.00,VWS V14.01,2013-06-19 10:56:00,
2013-06-19 04:01:00,51.6,45.6,30.01,WSW,257,0.0,0.0,80,0.00,,---,0.00,VWS V14.01,2013-06-19 11:01:00,
2013-06-19 04:06:00,51.4,45.5,30.03,WSW,257,0.0,0.0,80,0.00,,---,0.00,VWS V14.01,2013-06-19 11:06:00,
2013-06-19 04:11:00,51.3,45.0,30.00,WSW,257,0.0,0.0,79,0.00,,---,0.00,VWS V14.01,2013-06-19 11:11:00,
2013-06-19 04:16:00,51.1,45.2,30.03,WSW,257,0.0,0.0,80,0.00,,---,0.00,VWS V14.01,2013-06-19 11:16:00,
2013-06-19 04:21:00,51.1,45.2,30.02,WSW,257,0.0,0.0,80,0.00,,---,0.00,VWS V14.01,2013-06-19 11:21:00,
2013-06-19 04:26:00,51.1,45.2,30.02,WSW,257,0.0,0.0,80,0.00,,---,0.00,VWS V14.01,2013-06-19 11:26:00,
2013-06-19 04:31:00,51.0,45.1,29.99,WSW,257,0.0,0.0,80,0.00,,---,0.00,VWS V14.01,2013-06-19 11:31:00,
2013-06-19 04:36:00,50.8,44.9,30.01,WSW,257,0.0,0.0,80,0.00,,---,0.00,VWS V14.01,2013-06-19 11:36:00,
2013-06-19 04:42:00,50.6,44.7,30.00,WSW,257,0.0,0.0,80,0.00,,---,0.00,VWS V14.01,2013-06-19 11:42:00,
2013-06-19 04:47:00,50.5,44.6,30.02,WSW,257,0.0,0.0,80,0.00,,---,0.00,VWS V14.01,2013-06-19 11:47:00,
2013-06-19 04:52:00,50.5,44.6,29.99,WSW,256,0.0,0.0,80,0.00,,---,0.00,VWS V14.01,2013-06-19 11:52:00,
2013-06-19 04:57:00,50.4,44.8,30.01,WSW,257,1.0,3.0,81,0.00,,---,0.00,VWS V14.01,2013-06-19 11:57:00,
2013-06-19 05:02:00,50.4,44.8,30.00,WSW,257,0.0,1.0,81,0.00,,---,0.00,VWS V14.01,2013-06-19 12:02:00,
2013-06-19 05:07:00,50.3,44.7,30.02,WSW,257,0.0,3.0,81,0.00,,---,0.00,VWS V14.01,2013-06-19 12:07:00,
2013-06-19 05:12:00,50.4,45.1,30.00,WNW,284,1.0,4.0,82,0.00,,---,0.00,VWS V14.01,2013-06-19 12:12:00,
2013-06-19 05:17:00,50.5,45.2,30.00,WNW,284,0.0,4.0,82,0.00,,---,0.00,VWS V14.01,2013-06-19 12:17:00,
2013-06-19 05:22:00,50.5,45.2,30.01,WNW,283,2.0,4.0,82,0.00,,---,0.00,VWS V14.01,2013-06-19 12:22:00,
2013-06-19 05:27:00,50.6,45.3,30.02,WNW,284,0.0,4.0,82,0.00,,---,0.00,VWS V14.01,2013-06-19 12:27:00,
2013-06-19 05:32:00,50.7,45.1,29.99,WNW,283,0.0,3.0,81,0.00,,---,0.00,VWS V14.01,2013-06-19 12:32:00,
2013-06-19 05:37:00,50.8,45.5,30.02,WNW,284,0.0,3.0,82,0.00,,---,0.00,VWS V14.01,2013-06-19 12:37:00,
2013-06-19 05:42:00,50.9,45.3,30.02,WNW,283,0.0,3.0,81,0.00,,---,0.00,VWS V14.01,2013-06-19 12:42:00,
2013-06-19 05:47:00,50.8,45.2,29.99,WNW,284,0.0,3.0,81,0.00,,---,0.00,VWS V14.01,2013-06-19 12:47:00,
2013-06-19 05:52:00,50.8,45.2,29.99,WNW,284,0.0,3.0,81,0.00,,---,0.00,VWS V14.01,2013-06-19 12:52:00,
2013-06-19 05:57:00,50.6,45.0,30.01,WNW,284,0.0,3.0,81,0.00,,---,0.00,VWS V14.01,2013-06-19 12:57:00,
2013-06-19 06:02:00,50.4,44.8,30.02,WNW,283,0.0,0.0,81,0.00,,---,0.00,VWS V14.01,2013-06-19 13:02:00,
2013-06-19 06:07:00,50.4,45.1,30.01,WNW,284,0.0,2.0,82,0.00,,---,0.00,VWS V14.01,2013-06-19 13:07:00,
2013-06-19 06:12:00,50.4,45.1,30.02,WNW,284,0.0,2.0,82,0.00,,---,0.00,VWS V14.01,2013-06-19 13:12:00,
2013-06-19 06:17:00,50.4,45.1,30.03,WNW,284,0.0,2.0,82,0.00,,---,0.00,VWS V14.01,2013-06-19 13:17:00,
2013-06-19 06:22:00,50.4,45.1,30.03,WNW,284,0.0,3.0,82,0.00,,---,0.00,VWS V14.01,2013-06-19 13:22:00,
2013-06-19 06:27:00,50.3,45.3,30.02,WNW,284,0.0,3.0,83,0.00,,---,0.00,VWS V14.01,2013-06-19 13:27:00,
2013-06-19 06:33:00,50.4,45.4,30.04,WNW,284,0.0,2.0,83,0.00,,---,0.00,VWS V14.01,2013-06-19 13:33:00,
2013-06-19 06:38:00,50.4,45.4,30.03,WNW,284,1.0,3.0,83,0.00,,---,0.00,VWS V14.01,2013-06-19 13:38:00,
2013-06-19 06:43:00,50.5,45.8,30.01,WNW,284,1.0,3.0,84,0.00,,---,0.00,VWS V14.01,2013-06-19 13:43:00,
2013-06-19 06:48:00,50.6,46.0,30.05,WNW,283,0.0,3.0,84,0.00,,---,0.00,VWS V14.01,2013-06-19 13:48:00,
2013-06-19 06:53:00,50.7,46.0,30.02,WNW,284,0.0,3.0,84,0.00,,---,0.00,VWS V14.01,2013-06-19 13:53:00,
2013-06-19 06:58:00,50.8,46.2,30.04,WNW,284,1.0,3.0,84,0.00,,---,0.00,VWS V14.01,2013-06-19 13:58:00,
2013-06-19 07:03:00,51.1,46.4,30.03,WNW,284,1.0,3.0,84,0.00,,---,0.00,VWS V14.01,2013-06-19 14:03:00,
2013-06-19 07:08:00,51.2,46.5,30.06,WNW,284,4.0,4.0,84,0.00,,---,0.00,VWS V14.01,2013-06-19 14:08:00,
2013-06-19 07:13:00,51.8,46.5,30.02,NNW,343,1.0,5.0,82,0.00,,---,0.00,VWS V14.01,2013-06-19 14:13:00,
2013-06-19 07:18:00,52.1,46.8,30.05,NNW,344,1.0,5.0,82,0.00,,---,0.00,VWS V14.01,2013-06-19 14:18:00,
2013-06-19 07:23:00,52.6,46.6,30.05,NNW,344,2.0,5.0,80,0.00,,---,0.00,VWS V14.01,2013-06-19 14:23:00,
2013-06-19 07:28:00,52.8,46.8,30.04,NNW,333,2.0,5.0,80,0.00,,---,0.00,VWS V14.01,2013-06-19 14:28:00,
2013-06-19 07:33:00,53.3,47.0,30.03,NNW,333,0.0,4.0,79,0.00,,---,0.00,VWS V14.01,2013-06-19 14:33:00,
2013-06-19 07:38:00,53.5,46.5,30.04,NNW,333,3.0,4.0,77,0.00,,---,0.00,VWS V14.01,2013-06-19 14:38:00,
2013-06-19 07:43:00,53.6,46.2,30.02,NNW,334,4.0,4.0,76,0.00,,---,0.00,VWS V14.01,2013-06-19 14:43:00,
2013-06-19 07:48:00,53.9,47.2,30.06,NNW,334,0.0,4.0,78,0.00,,---,0.00,VWS V14.01,2013-06-19 14:48:00,
2013-06-19 07:53:00,54.1,46.7,30.04,NNW,334,1.0,5.0,76,0.00,,---,0.00,VWS V14.01,2013-06-19 14:53:00,
2013-06-19 07:58:00,54.2,46.8,30.05,NNW,343,1.0,5.0,76,0.00,,---,0.00,VWS V14.01,2013-06-19 14:58:00,
2013-06-19 08:03:00,54.5,46.4,30.02,NNW,343,0.0,3.0,74,0.00,,---,0.00,VWS V14.01,2013-06-19 15:03:00,
2013-06-19 08:08:00,54.6,46.5,30.03,North,352,0.0,6.0,74,0.00,,---,0.00,VWS V14.01,2013-06-19 15:08:00,
2013-06-19 08:13:00,54.8,46.3,30.03,North,352,0.0,6.0,73,0.00,,---,0.00,VWS V14.01,2013-06-19 15:13:00,
2013-06-19 08:18:00,55.1,46.6,30.03,North,352,0.0,6.0,73,0.00,,---,0.00,VWS V14.01,2013-06-19 15:18:00,
2013-06-19 08:24:00,55.4,47.3,30.03,North,352,0.0,6.0,74,0.00,,---,0.00,VWS V14.01,2013-06-19 15:24:00,
2013-06-19 08:29:00,55.6,47.1,30.06,North,352,3.0,6.0,73,0.00,,---,0.00,VWS V14.01,2013-06-19 15:29:00,
2013-06-19 08:34:00,56.0,47.1,30.06,North,352,1.0,3.0,72,0.00,,---,0.00,VWS V14.01,2013-06-19 15:34:00,
2013-06-19 08:39:00,56.0,47.1,30.06,North,352,0.0,3.0,72,0.00,,---,0.00,VWS V14.01,2013-06-19 15:39:00,
2013-06-19 08:44:00,56.4,47.5,30.03,North,352,0.0,3.0,72,0.00,,---,0.00,VWS V14.01,2013-06-19 15:44:00,
2013-06-19 08:49:00,56.8,47.5,30.03,North,353,0.0,3.0,71,0.00,,---,0.00,VWS V14.01,2013-06-19 15:49:00,
2013-06-19 08:54:00,57.3,47.6,30.03,North,353,0.0,3.0,70,0.00,,---,0.00,VWS V14.01,2013-06-19 15:54:00,
2013-06-19 08:59:00,57.4,47.3,30.05,North,353,0.0,3.0,69,0.00,,---,0.00,VWS V14.01,2013-06-19 15:59:00,
2013-06-19 09:04:00,57.7,47.6,30.04,North,353,0.0,4.0,69,0.00,,---,0.00,VWS V14.01,2013-06-19 16:04:00,
2013-06-19 09:09:00,58.0,48.3,30.06,North,353,0.0,4.0,70,0.00,,---,0.00,VWS V14.01,2013-06-19 16:09:00,
2013-06-19 09:14:00,58.2,47.3,30.05,North,353,1.0,4.0,67,0.00,,---,0.00,VWS V14.01,2013-06-19 16:14:00,
2013-06-19 09:19:00,58.4,47.9,30.04,North,353,2.0,4.0,68,0.00,,---,0.00,VWS V14.01,2013-06-19 16:19:00,
2013-06-19 09:24:00,58.7,47.4,30.03,North,353,2.0,4.0,66,0.00,,---,0.00,VWS V14.01,2013-06-19 16:24:00,
2013-06-19 09:29:00,58.8,47.1,30.02,North,353,3.0,4.0,65,0.00,,---,0.00,VWS V14.01,2013-06-19 16:29:00,
2013-06-19 09:34:00,59.3,47.5,30.04,North,351,1.0,4.0,65,0.00,,---,0.00,VWS V14.01,2013-06-19 16:34:00,
2013-06-19 09:39:00,59.6,47.4,30.05,North,350,1.0,5.0,64,0.00,,---,0.00,VWS V14.01,2013-06-19 16:39:00,
2013-06-19 09:44:00,59.9,47.3,30.06,NNW,335,2.0,5.0,63,0.00,,---,0.00,VWS V14.01,2013-06-19 16:44:00,
2013-06-19 09:49:00,60.2,48.0,30.05,WSW,255,2.0,5.0,64,0.00,,---,0.00,VWS V14.01,2013-06-19 16:49:00,
2013-06-19 09:54:00,60.6,48.0,30.02,North,351,3.0,5.0,63,0.00,,---,0.00,VWS V14.01,2013-06-19 16:54:00,
2013-06-19 09:59:00,61.0,47.0,30.04,North,358,3.0,6.0,60,0.00,,---,0.00,VWS V14.01,2013-06-19 16:59:00,
2013-06-19 10:04:00,61.6,48.5,30.04,North,0,3.0,4.0,62,0.00,,---,0.00,VWS V14.01,2013-06-19 17:04:00,
2013-06-19 10:10:00,62.0,48.0,30.02,NNW,345,0.0,5.0,60,0.00,,---,0.00,VWS V14.01,2013-06-19 17:10:00,
2013-06-19 10:15:00,62.4,47.5,30.03,NNW,345,0.0,5.0,58,0.00,,---,0.00,VWS V14.01,2013-06-19 17:15:00,
2013-06-19 10:20:00,62.7,48.6,30.02,NNW,339,2.0,5.0,60,0.00,,---,0.00,VWS V14.01,2013-06-19 17:20:00,
2013-06-19 10:25:00,62.9,47.9,30.05,NNW,329,2.0,5.0,58,0.00,,---,0.00,VWS V14.01,2013-06-19 17:25:00,
2013-06-19 10:30:00,63.0,48.5,30.05,NNW,329,0.0,1.0,59,0.00,,---,0.00,VWS V14.01,2013-06-19 17:30:00,
2013-06-19 10:35:00,63.2,47.7,30.02,NNW,329,3.0,4.0,57,0.00,,---,0.00,VWS V14.01,2013-06-19 17:35:00,
2013-06-19 10:40:00,63.3,47.3,30.06,NNW,329,1.0,4.0,56,0.00,,---,0.00,VWS V14.01,2013-06-19 17:40:00,
2013-06-19 10:45:00,63.5,47.5,30.04,NNW,329,2.0,4.0,56,0.00,,---,0.00,VWS V14.01,2013-06-19 17:45:00,
2013-06-19 10:50:00,63.6,48.6,30.05,NNW,329,2.0,4.0,58,0.00,,---,0.00,VWS V14.01,2013-06-19 17:50:00,
2013-06-19 10:55:00,64.0,47.5,30.03,NNW,329,3.0,5.0,55,0.00,,---,0.00,VWS V14.01,2013-06-19 17:55:00,
2013-06-19 11:00:00,64.3,47.8,30.05,South,172,2.0,2.0,55,0.00,,---,0.00,VWS V14.01,2013-06-19 18:00:00,
2013-06-19 11:05:00,64.6,48.1,30.04,WNW,302,2.0,5.0,55,0.00,,---,0.00,VWS V14.01,2013-06-19 18:05:00,
2013-06-19 11:10:00,65.0,47.5,30.05,WNW,297,0.0,5.0,53,0.00,,---,0.00,VWS V14.01,2013-06-19 18:10:00,
2013-06-19 11:15:00,65.2,47.2,30.05,SSW,203,3.0,6.0,52,0.00,,---,0.00,VWS V14.01,2013-06-19 18:15:00,
2013-06-19 11:20:00,65.4,47.8,30.05,SSW,203,1.0,6.0,53,0.00,,---,0.00,VWS V14.01,2013-06-19 18:20:00,
2013-06-19 11:25:00,65.9,48.3,30.04,SSW,203,3.0,6.0,53,0.00,,---,0.00,VWS V14.01,2013-06-19 18:25:00,
2013-06-19 11:30:00,66.0,48.4,30.03,North,357,2.0,6.0,53,0.00,,---,0.00,VWS V14.01,2013-06-19 18:30:00,
2013-06-19 11:35:00,66.4,48.8,30.04,WNW,301,4.0,6.0,53,0.00,,---,0.00,VWS V14.01,2013-06-19 18:35:00,
2013-06-19 11:40:00,66.5,48.3,30.03,NW,318,3.0,6.0,52,0.00,,---,0.00,VWS V14.01,2013-06-19 18:40:00,
2013-06-19 11:45:00,66.7,49.0,30.01,SSW,198,1.0,7.0,53,0.00,,---,0.00,VWS V14.01,2013-06-19 18:45:00,
2013-06-19 11:50:00,66.9,48.7,30.03,SW,232,3.0,7.0,52,0.00,,---,0.00,VWS V14.01,2013-06-19 18:50:00,
2013-06-19 11:55:00,67.2,50.0,30.05,West,261,2.0,7.0,54,0.00,,---,0.00,VWS V14.01,2013-06-19 18:55:00,
2013-06-19 12:01:00,67.8,50.1,30.03,WNW,303,3.0,5.0,53,0.00,,---,0.00,VWS V14.01,2013-06-19 19:01:00,
2013-06-19 12:06:00,68.0,49.7,30.04,SW,234,1.0,5.0,52,0.00,,---,0.00,VWS V14.01,2013-06-19 19:06:00,
2013-06-19 12:11:00,68.0,50.2,30.04,SW,235,3.0,6.0,53,0.00,,---,0.00,VWS V14.01,2013-06-19 19:11:00,
2013-06-19 12:16:00,68.0,49.7,30.02,WSW,243,3.0,6.0,52,0.00,,---,0.00,VWS V14.01,2013-06-19 19:16:00,
2013-06-19 12:21:00,68.3,50.0,30.05,SW,225,5.0,6.0,52,0.00,,---,0.00,VWS V14.01,2013-06-19 19:21:00,
2013-06-19 12:26:00,68.5,49.7,30.06,WSW,249,0.0,7.0,51,0.00,,---,0.00,VWS V14.01,2013-06-19 19:26:00,
2013-06-19 12:31:00,68.8,49.4,30.04,WSW,250,1.0,7.0,50,0.00,,---,0.00,VWS V14.01,2013-06-19 19:31:00,
2013-06-19 12:36:00,69.0,50.7,30.04,SW,221,8.0,8.0,52,0.00,,---,0.00,VWS V14.01,2013-06-19 19:36:00,
2013-06-19 12:41:00,69.2,50.3,30.04,SW,235,6.0,9.0,51,0.00,,---,0.00,VWS V14.01,2013-06-19 19:41:00,
2013-06-19 12:46:00,69.7,51.8,30.04,SW,228,2.0,9.0,53,0.00,,---,0.00,VWS V14.01,2013-06-19 19:46:00,
2013-06-19 12:51:00,69.7,50.2,30.03,SW,223,3.0,11.0,50,0.00,,---,0.00,VWS V14.01,2013-06-19 19:51:00,
2013-06-19 12:56:00,69.9,51.5,30.02,SW,231,5.0,11.0,52,0.00,,---,0.00,VWS V14.01,2013-06-19 19:56:00,
2013-06-19 13:01:00,70.4,52.0,30.01,SW,233,4.0,4.0,52,0.00,,---,0.00,VWS V14.01,2013-06-19 20:01:00,
2013-06-19 13:06:00,70.6,51.1,30.02,WSW,242,4.0,8.0,50,0.00,,---,0.00,VWS V14.01,2013-06-19 20:06:00,
2013-06-19 13:11:00,70.9,49.7,30.00,WNW,300,4.0,8.0,47,0.00,,---,0.00,VWS V14.01,2013-06-19 20:11:00,
2013-06-19 13:16:00,71.0,50.3,30.03,WNW,302,3.0,8.0,48,0.00,,---,0.00,VWS V14.01,2013-06-19 20:16:00,
2013-06-19 13:21:00,71.3,50.0,30.05,WSW,249,2.0,11.0,47,0.00,,---,0.00,VWS V14.01,2013-06-19 20:21:00,
2013-06-19 13:26:00,71.6,51.5,30.04,WSW,250,3.0,11.0,49,0.00,,---,0.00,VWS V14.01,2013-06-19 20:26:00,
2013-06-19 13:31:00,71.5,51.4,30.05,West,264,7.0,9.0,49,0.00,,---,0.00,VWS V14.01,2013-06-19 20:31:00,
2013-06-19 13:36:00,71.7,51.0,30.03,West,264,4.0,9.0,48,0.00,,---,0.00,VWS V14.01,2013-06-19 20:36:00,
2013-06-19 13:41:00,71.6,50.3,30.03,WNW,294,4.0,9.0,47,0.00,,---,0.00,VWS V14.01,2013-06-19 20:41:00,
2013-06-19 13:46:00,71.8,50.5,30.00,WSW,257,4.0,9.0,47,0.00,,---,0.00,VWS V14.01,2013-06-19 20:46:00,
2013-06-19 13:52:00,72.3,51.0,30.02,West,272,5.0,9.0,47,0.00,,---,0.00,VWS V14.01,2013-06-19 20:52:00,
2013-06-19 13:57:00,72.5,50.0,30.02,WNW,293,4.0,9.0,45,0.00,,---,0.00,VWS V14.01,2013-06-19 20:57:00,
2013-06-19 14:02:00,72.9,51.5,30.00,NW,308,7.0,11.0,47,0.00,,---,0.00,VWS V14.01,2013-06-19 21:02:00,
2013-06-19 14:07:00,72.9,50.3,30.05,WSW,252,6.0,11.0,45,0.00,,---,0.00,VWS V14.01,2013-06-19 21:07:00,
2013-06-19 14:12:00,73.2,50.0,30.04,WNW,283,4.0,11.0,44,0.00,,---,0.00,VWS V14.01,2013-06-19 21:12:00,
2013-06-19 14:17:00,73.3,50.1,30.01,WNW,291,1.0,11.0,44,0.00,,---,0.00,VWS V14.01,2013-06-19 21:17:00,
2013-06-19 14:22:00,73.5,50.9,30.02,WNW,283,7.0,11.0,45,0.00,,---,0.00,VWS V14.01,2013-06-19 21:22:00,
2013-06-19 14:27:00,73.8,50.5,30.02,WNW,295,3.0,11.0,44,0.00,,---,0.00,VWS V14.01,2013-06-19 21:27:00,
2013-06-19 14:32:00,73.8,49.3,30.05,WSW,253,9.0,11.0,42,0.00,,---,0.00,VWS V14.01,2013-06-19 21:32:00,
2013-06-19 14:37:00,73.6,49.8,30.00,West,276,6.0,11.0,43,0.00,,---,0.00,VWS V14.01,2013-06-19 21:37:00,
2013-06-19 14:42:00,73.7,50.5,30.03,WNW,287,5.0,11.0,44,0.00,,---,0.00,VWS V14.01,2013-06-19 21:42:00,
2013-06-19 14:47:00,73.7,50.5,30.01,SW,226,4.0,11.0,44,0.00,,---,0.00,VWS V14.01,2013-06-19 21:47:00,
2013-06-19 14:52:00,74.1,50.8,29.99,WSW,250,4.0,11.0,44,0.00,,---,0.00,VWS V14.01,2013-06-19 21:52:00,
2013-06-19 14:57:00,74.3,49.8,30.04,SW,224,6.0,11.0,42,0.00,,---,0.00,VWS V14.01,2013-06-19 21:57:00,
2013-06-19 15:02:00,74.0,49.5,29.99,West,265,7.0,11.0,42,0.00,,---,0.00,VWS V14.01,2013-06-19 22:02:00,
2013-06-19 15:07:00,73.7,50.5,29.99,SW,230,5.0,11.0,44,0.00,,---,0.00,VWS V14.01,2013-06-19 22:07:00,
2013-06-19 15:12:00,73.7,49.8,30.00,SW,231,5.0,11.0,43,0.00,,---,0.00,VWS V14.01,2013-06-19 22:12:00,
2013-06-19 15:17:00,73.6,50.4,29.99,SSW,208,4.0,11.0,44,0.00,,---,0.00,VWS V14.01,2013-06-19 22:17:00,
2013-06-19 15:22:00,73.2,49.4,30.01,SW,227,7.0,11.0,43,0.00,,---,0.00,VWS V14.01,2013-06-19 22:22:00,
2013-06-19 15:27:00,73.0,49.8,30.02,West,273,4.0,12.0,44,0.00,,---,0.00,VWS V14.01,2013-06-19 22:27:00,
2013-06-19 15:32:00,73.2,50.0,30.01,SW,226,7.0,11.0,44,0.00,,---,0.00,VWS V14.01,2013-06-19 22:32:00,
2013-06-19 15:37:00,73.4,49.6,30.01,SW,232,9.0,11.0,43,0.00,,---,0.00,VWS V14.01,2013-06-19 22:37:00,
2013-06-19 15:43:00,73.5,49.7,29.99,West,279,6.0,11.0,43,0.00,,---,0.00,VWS V14.01,2013-06-19 22:43:00,
2013-06-19 15:48:00,73.3,49.5,30.00,SW,228,8.0,11.0,43,0.00,,---,0.00,VWS V14.01,2013-06-19 22:48:00,
2013-06-19 15:53:00,72.6,50.1,30.02,WNW,299,4.0,11.0,45,0.00,,---,0.00,VWS V14.01,2013-06-19 22:53:00,
2013-06-19 15:58:00,72.2,49.7,30.05,SW,228,6.0,11.0,45,0.00,,---,0.00,VWS V14.01,2013-06-19 22:58:00,
2013-06-19 16:03:00,72.0,48.9,29.98,SW,232,2.0,11.0,44,0.00,,---,0.00,VWS V14.01,2013-06-19 23:03:00,
2013-06-19 16:08:00,72.1,49.0,30.01,WNW,282,5.0,11.0,44,0.00,,---,0.00,VWS V14.01,2013-06-19 23:08:00,
2013-06-19 16:13:00,71.9,50.6,30.03,West,265,5.0,11.0,47,0.00,,---,0.00,VWS V14.01,2013-06-19 23:13:00,
2013-06-19 16:18:00,72.0,50.1,30.01,SW,226,6.0,13.0,46,0.00,,---,0.00,VWS V14.01,2013-06-19 23:18:00,
2013-06-19 16:23:00,72.0,50.1,29.98,West,280,7.0,13.0,46,0.00,,---,0.00,VWS V14.01,2013-06-19 23:23:00,
2013-06-19 16:28:00,72.0,48.9,30.02,West,277,3.0,13.0,44,0.00,,---,0.00,VWS V14.01,2013-06-19 23:28:00,
2013-06-19 16:33:00,72.0,49.5,30.00,WSW,254,4.0,10.0,45,0.00,,---,0.00,VWS V14.01,2013-06-19 23:33:00,
2013-06-19 16:38:00,72.3,49.2,30.01,West,281,7.0,10.0,44,0.00,,---,0.00,VWS V14.01,2013-06-19 23:38:00,
2013-06-19 16:43:00,72.2,48.5,30.00,SW,231,5.0,11.0,43,0.00,,---,0.00,VWS V14.01,2013-06-19 23:43:00,
2013-06-19 16:48:00,72.0,48.9,30.03,WSW,251,3.0,11.0,44,0.00,,---,0.00,VWS V14.01,2013-06-19 23:48:00,
2013-06-19 16:53:00,72.2,48.5,30.01,WSW,243,4.0,11.0,43,0.00,,---,0.00,VWS V14.01,2013-06-19 23:53:00,
2013-06-19 16:58:00,72.5,47.5,30.01,NW,316,4.0,11.0,41,0.00,,---,0.00,VWS V14.01,2013-06-19 23:58:00,
2013-06-19 17:03:00,73.1,48.0,29.98,WSW,251,3.0,10.0,41,0.00,,---,0.00,VWS V14.01,2013-06-20 00:03:00,
2013-06-19 17:08:00,72.9,47.8,30.00,SW,233,4.0,10.0,41,0.00,,---,0.00,VWS V14.01,2013-06-20 00:08:00,
2013-06-19 17:13:00,72.7,47.7,29.99,SW,225,2.0,10.0,41,0.00,,---,0.00,VWS V14.01,2013-06-20 00:13:00,
2013-06-19 17:18:00,72.5,48.8,30.00,SW,233,2.0,11.0,43,0.00,,---,0.00,VWS V14.01,2013-06-20 00:18:00,
2013-06-19 17:23:00,72.4,47.4,30.01,SW,231,3.0,11.0,41,0.00,,---,0.00,VWS V14.01,2013-06-20 00:23:00,
2013-06-19 17:29:00,72.6,48.8,29.99,SW,235,3.0,11.0,43,0.00,,---,0.00,VWS V14.01,2013-06-20 00:29:00,
2013-06-19 17:34:00,73.0,47.3,29.99,SSW,209,2.0,9.0,40,0.00,,---,0.00,VWS V14.01,2013-06-20 00:34:00,
2013-06-19 17:39:00,73.0,47.9,29.98,West,261,4.0,9.0,41,0.00,,---,0.00,VWS V14.01,2013-06-20 00:39:00,
2013-06-19 17:44:00,72.9,47.8,30.00,SW,228,8.0,9.0,41,0.00,,---,0.00,VWS V14.01,2013-06-20 00:44:00,
2013-06-19 17:49:00,72.6,48.2,30.02,SW,233,5.0,10.0,42,0.00,,---,0.00,VWS V14.01,2013-06-20 00:49:00,
2013-06-19 17:54:00,72.2,48.5,29.97,SW,221,5.0,10.0,43,0.00,,---,0.00,VWS V14.01,2013-06-20 00:54:00,
2013-06-19 17:59:00,72.2,49.1,29.97,WNW,289,4.0,10.0,44,0.00,,---,0.00,VWS V14.01,2013-06-20 00:59:00,
2013-06-19 18:04:00,72.1,48.4,29.98,SW,225,3.0,9.0,43,0.00,,---,0.00,VWS V14.01,2013-06-20 01:04:00,
2013-06-19 18:09:00,72.1,49.6,30.00,SW,236,6.0,9.0,45,0.00,,---,0.00,VWS V14.01,2013-06-20 01:09:00,
2013-06-19 18:14:00,71.7,49.2,30.01,WSW,248,4.0,9.0,45,0.00,,---,0.00,VWS V14.01,2013-06-20 01:14:00,
2013-06-19 18:19:00,71.5,49.7,29.99,SW,228,2.0,11.0,46,0.00,,---,0.00,VWS V14.01,2013-06-20 01:19:00,
2013-06-19 18:24:00,71.1,49.3,30.00,WSW,240,3.0,11.0,46,0.00,,---,0.00,VWS V14.01,2013-06-20 01:24:00,
2013-06-19 18:29:00,70.5,48.8,30.02,WSW,238,6.0,11.0,46,0.00,,---,0.00,VWS V14.01,2013-06-20 01:29:00,
2013-06-19 18:34:00,69.8,48.1,29.99,WNW,286,3.0,9.0,46,0.00,,---,0.00,VWS V14.01,2013-06-20 01:34:00,
2013-06-19 18:39:00,69.6,48.5,30.00,SW,232,3.0,9.0,47,0.00,,---,0.00,VWS V14.01,2013-06-20 01:39:00,
2013-06-19 18:44:00,69.3,47.7,29.98,SW,232,5.0,9.0,46,0.00,,---,0.00,VWS V14.01,2013-06-20 01:44:00,
2013-06-19 18:49:00,69.2,49.2,29.98,WSW,237,7.0,9.0,49,0.00,,---,0.00,VWS V14.01,2013-06-20 01:49:00,
2013-06-19 18:54:00,68.7,48.2,30.00,SW,231,5.0,10.0,48,0.00,,---,0.00,VWS V14.01,2013-06-20 01:54:00,
2013-06-19 18:59:00,68.3,48.4,29.99,South,175,1.0,10.0,49,0.00,,---,0.00,VWS V14.01,2013-06-20 01:59:00,
2013-06-19 19:04:00,68.2,48.3,30.00,South,182,3.0,5.0,49,0.00,,---,0.00,VWS V14.01,2013-06-20 02:04:00,
2013-06-19 19:09:00,68.0,48.7,30.00,SW,227,0.0,7.0,50,0.00,,---,0.00,VWS V14.01,2013-06-20 02:09:00,
2013-06-19 19:15:00,68.0,48.7,30.01,SW,215,2.0,7.0,50,0.00,,---,0.00,VWS V14.01,2013-06-20 02:15:00,
2013-06-19 19:20:00,67.9,49.1,30.01,SW,216,2.0,7.0,51,0.00,,---,0.00,VWS V14.01,2013-06-20 02:20:00,
2013-06-19 19:25:00,67.7,49.5,29.98,SW,216,2.0,7.0,52,0.00,,---,0.00,VWS V14.01,2013-06-20 02:25:00,
2013-06-19 19:30:00,67.4,48.1,29.99,SW,216,4.0,4.0,50,0.00,,---,0.00,VWS V14.01,2013-06-20 02:30:00,
2013-06-19 19:35:00,66.9,48.7,30.03,SW,215,2.0,5.0,52,0.00,,---,0.00,VWS V14.01,2013-06-20 02:35:00,
2013-06-19 19:40:00,66.5,48.3,29.99,SW,216,1.0,5.0,52,0.00,,---,0.00,VWS V14.01,2013-06-20 02:40:00,
2013-06-19 19:45:00,66.0,47.9,29.99,SW,217,2.0,6.0,52,0.00,,---,0.00,VWS V14.01,2013-06-20 02:45:00,
2013-06-19 19:50:00,65.9,47.8,29.99,SW,217,0.0,6.0,52,0.00,,---,0.00,VWS V14.01,2013-06-20 02:50:00,
2013-06-19 19:55:00,65.7,48.1,30.00,SW,217,1.0,6.0,53,0.00,,---,0.00,VWS V14.01,2013-06-20 02:55:00,
2013-06-19 20:00:00,65.8,48.7,30.02,SW,217,1.0,2.0,54,0.00,,---,0.00,VWS V14.01,2013-06-20 03:00:00,
2013-06-19 20:05:00,65.7,49.1,30.02,SW,217,1.0,5.0,55,0.00,,---,0.00,VWS V14.01,2013-06-20 03:05:00,
2013-06-19 20:10:00,65.3,48.7,30.01,SW,217,0.0,5.0,55,0.00,,---,0.00,VWS V14.01,2013-06-20 03:10:00,
2013-06-19 20:15:00,65.1,48.5,29.99,SW,217,1.0,5.0,55,0.00,,---,0.00,VWS V14.01,2013-06-20 03:15:00,
2013-06-19 20:20:00,65.0,48.5,29.99,SW,217,2.0,5.0,55,0.00,,---,0.00,VWS V14.01,2013-06-20 03:20:00,
2013-06-19 20:25:00,64.6,48.6,30.02,SW,217,1.0,5.0,56,0.00,,---,0.00,VWS V14.01,2013-06-20 03:25:00,
2013-06-19 20:30:00,64.3,48.8,30.01,SW,217,1.0,3.0,57,0.00,,---,0.00,VWS V14.01,2013-06-20 03:30:00,
2013-06-19 20:35:00,63.7,48.2,29.99,SW,217,2.0,4.0,57,0.00,,---,0.00,VWS V14.01,2013-06-20 03:35:00,
2013-06-19 20:40:00,63.3,48.3,30.01,SW,217,0.0,4.0,58,0.00,,---,0.00,VWS V14.01,2013-06-20 03:40:00,
2013-06-19 20:45:00,62.8,48.3,30.02,SW,217,0.0,4.0,59,0.00,,---,0.00,VWS V14.01,2013-06-20 03:45:00,
2013-06-19 20:51:00,62.7,48.2,29.99,SW,217,0.0,4.0,59,0.00,,---,0.00,VWS V14.01,2013-06-20 03:51:00,
2013-06-19 20:56:00,62.5,48.0,30.01,SW,217,0.0,4.0,59,0.00,,---,0.00,VWS V14.01,2013-06-20 03:56:00,
2013-06-19 21:01:00,62.2,48.6,30.01,SW,217,0.0,0.0,61,0.00,,---,0.00,VWS V14.01,2013-06-20 04:01:00,
2013-06-19 21:02:00,62.0,48.0,29.99,SW,217,0.0,2.0,60,0.00,,---,0.00,VWS V14.01,2013-06-20 04:02:00,
2013-06-19 21:07:00,61.7,48.1,30.02,SW,217,0.0,3.0,61,0.00,,---,0.00,VWS V14.01,2013-06-20 04:07:00,
2013-06-19 21:12:00,61.5,47.9,30.04,SW,217,0.0,3.0,61,0.00,,---,0.00,VWS V14.01,2013-06-20 04:12:00,
2013-06-19 21:17:00,61.3,48.2,30.01,SW,217,0.0,3.0,62,0.00,,---,0.00,VWS V14.01,2013-06-20 04:17:00,
2013-06-19 21:22:00,60.9,47.8,30.00,SW,217,0.0,3.0,62,0.00,,---,0.00,VWS V14.01,2013-06-20 04:22:00,
2013-06-19 21:27:00,60.5,48.3,29.99,SW,217,0.0,3.0,64,0.00,,---,0.00,VWS V14.01,2013-06-20 04:27:00,
2013-06-19 21:32:00,60.2,48.4,30.00,SW,217,2.0,3.0,65,0.00,,---,0.00,VWS V14.01,2013-06-20 04:32:00,
2013-06-19 21:37:00,59.9,48.1,30.02,SW,217,0.0,3.0,65,0.00,,---,0.00,VWS V14.01,2013-06-20 04:37:00,
2013-06-19 21:42:00,59.7,47.9,30.03,SW,217,0.0,3.0,65,0.00,,---,0.00,VWS V14.01,2013-06-20 04:42:00,
2013-06-19 21:47:00,59.6,47.8,30.02,SW,217,0.0,3.0,65,0.00,,---,0.00,VWS V14.01,2013-06-20 04:47:00,
2013-06-19 21:52:00,59.4,47.7,30.00,SW,217,0.0,3.0,65,0.00,,---,0.00,VWS V14.01,2013-06-20 04:52:00,
2013-06-19 21:58:00,59.2,47.9,30.02,SW,217,1.0,3.0,66,0.00,,---,0.00,VWS V14.01,2013-06-20 04:58:00,
2013-06-19 22:03:00,59.0,48.1,30.01,SW,217,0.0,1.0,67,0.00,,---,0.00,VWS V14.01,2013-06-20 05:03:00,
2013-06-19 22:08:00,58.5,47.2,30.01,SW,217,1.0,2.0,66,0.00,,---,0.00,VWS V14.01,2013-06-20 05:08:00,
2013-06-19 22:13:00,58.3,47.0,30.01,SW,217,0.0,3.0,66,0.00,,---,0.00,VWS V14.01,2013-06-20 05:13:00,
2013-06-19 22:18:00,58.2,46.9,30.03,SW,217,0.0,3.0,66,0.00,,---,0.00,VWS V14.01,2013-06-20 05:18:00,
2013-06-19 22:23:00,58.2,46.5,30.02,SW,217,0.0,3.0,65,0.00,,---,0.00,VWS V14.01,2013-06-20 05:23:00,
2013-06-19 22:28:00,58.2,46.1,30.02,SW,217,0.0,3.0,64,0.00,,---,0.00,VWS V14.01,2013-06-20 05:28:00,
2013-06-19 22:33:00,58.1,45.6,30.01,SW,217,1.0,2.0,63,0.00,,---,0.00,VWS V14.01,2013-06-20 05:33:00,
2013-06-19 22:38:00,58.1,45.2,30.01,SW,217,0.0,2.0,62,0.00,,---,0.00,VWS V14.01,2013-06-20 05:38:00,
2013-06-19 22:43:00,58.0,45.5,30.03,SW,217,0.0,2.0,63,0.00,,---,0.00,VWS V14.01,2013-06-20 05:43:00,
2013-06-19 22:48:00,58.2,45.7,30.02,SW,217,1.0,2.0,63,0.00,,---,0.00,VWS V14.01,2013-06-20 05:48:00,
2013-06-19 22:53:00,58.0,45.9,30.02,SW,217,0.0,2.0,64,0.00,,---,0.00,VWS V14.01,2013-06-20 05:53:00,
2013-06-19 22:58:00,57.9,45.4,30.01,SW,217,0.0,3.0,63,0.00,,---,0.00,VWS V14.01,2013-06-20 05:58:00,
2013-06-19 23:03:00,57.8,45.3,30.01,SW,217,0.0,1.0,63,0.00,,---,0.00,VWS V14.01,2013-06-20 06:03:00,
2013-06-19 23:08:00,57.9,45.4,30.01,SW,217,0.0,1.0,63,0.00,,---,0.00,VWS V14.01,2013-06-20 06:08:00,
2013-06-19 23:13:00,57.7,45.6,30.02,SW,217,0.0,2.0,64,0.00,,---,0.00,VWS V14.01,2013-06-20 06:13:00,
2013-06-19 23:18:00,57.8,45.7,30.03,SW,217,0.0,2.0,64,0.00,,---,0.00,VWS V14.01,2013-06-20 06:18:00,
2013-06-19 23:23:00,57.6,45.5,30.00,SW,217,0.0,2.0,64,0.00,,---,0.00,VWS V14.01,2013-06-20 06:23:00,
2013-06-19 23:28:00,57.5,45.8,30.02,SW,217,0.0,3.0,65,0.00,,---,0.00,VWS V14.01,2013-06-20 06:28:00,
2013-06-19 23:33:00,57.4,46.2,30.02,SW,217,0.0,2.0,66,0.00,,---,0.00,VWS V14.01,2013-06-20 06:33:00,
2013-06-19 23:38:00,57.3,45.7,30.01,SW,217,1.0,3.0,65,0.00,,---,0.00,VWS V14.01,2013-06-20 06:38:00,
2013-06-19 23:43:00,57.3,46.0,29.99,SW,217,0.0,3.0,66,0.00,,---,0.00,VWS V14.01,2013-06-20 06:43:00,
2013-06-19 23:48:00,57.3,46.5,30.01,NW,318,2.0,4.0,67,0.00,,---,0.00,VWS V14.01,2013-06-20 06:48:00,
2013-06-19 23:54:00,57.3,46.5,30.00,WNW,291,7.0,7.0,67,0.00,,---,0.00,VWS V14.01,2013-06-20 06:54:00,
2013-06-19 23:59:00,57.1,46.3,30.00,WNW,288,1.0,7.0,67,0.00,,---,0.00,VWS V14.01,2013-06-20 06:59:00,